Terminal Aerodrome Forecast
Issued by NWS Lake Charles, LA

Home | Current Version | Previous Version | Text Only | Print | Product List | Glossary On
Versions: 1 2 3 4 5 6 7 8 9 10 11 12 13 14
000
FTUS44 KLCH 282300
TAFBPT
TAF
KBPT 282320Z 2900/2924 26005KT P6SM FEW050
     FM290300 30004KT P6SM VCSH SCT040
     FM290900 36004KT P6SM OVC250
     FM291800 02006KT P6SM VCTS SCT040CB=

USA.gov is the U.S. government's official web portal to all federal, state and local government web resources and services.